Time;durP1;ratioP1;P1;durP2;ratioP2;P2;SDS_P1;SDS_P2;PMS_P1;PMS_P2;Temp;Humidity;BMP_temperature;BMP_pressure;BME280_temperature;BME280_humidity;BME280_pressure;Samples;Min_cycle;Max_cycle;Signal;HPM_P1;HPM_P2
2020/12/07 00:01:47;;;;;;;46.35;27.42;;;;;;;2.30;70.74;94599.38;1843800;77;22082;-54
2020/12/07 00:04:15;;;;;;;49.85;29.42;;;;;;;2.29;70.88;94596.47;1843818;77;21563;-55
2020/12/07 00:06:44;;;;;;;50.28;28.32;;;;;;;2.25;70.87;94583.48;1843883;77;21567;-54
2020/12/07 00:09:12;;;;;;;59.55;31.77;;;;;;;2.20;70.99;94583.92;1843786;77;21064;-54
2020/12/07 00:11:40;;;;;;;44.98;24.55;;;;;;;2.17;71.11;94588.78;1843755;77;21198;-54
2020/12/07 00:14:09;;;;;;;51.42;27.70;;;;;;;2.11;71.09;94591.14;1843803;77;22371;-54
2020/12/07 00:16:37;;;;;;;49.73;29.98;;;;;;;2.00;71.18;94592.38;1843723;77;21559;-54
2020/12/07 00:19:06;;;;;;;54.18;31.12;;;;;;;1.93;71.32;94595.89;1843749;77;21111;-54
2020/12/07 00:21:34;;;;;;;57.27;31.82;;;;;;;1.87;71.58;94600.77;1843780;77;21143;-54
2020/12/07 00:24:04;;;;;;;57.75;31.62;;;;;;;1.83;71.76;94595.38;1843883;77;21143;-54
2020/12/07 00:26:34;;;;;;;62.08;33.08;;;;;;;1.76;71.75;94600.81;1843699;76;21486;-54
2020/12/07 00:29:03;;;;;;;66.00;32.88;;;;;;;1.67;71.86;94598.34;1843838;77;21480;-53
2020/12/07 00:31:34;;;;;;;58.58;30.37;;;;;;;1.61;72.17;94598.58;1843740;77;21052;-54
2020/12/07 00:34:04;;;;;;;54.10;30.20;;;;;;;1.57;72.13;94588.91;1843923;77;21142;-54
2020/12/07 00:36:32;;;;;;;57.35;32.88;;;;;;;1.53;72.31;94593.57;1844042;77;21151;-54
2020/12/07 00:39:00;;;;;;;67.95;36.48;;;;;;;1.49;72.45;94586.80;1844123;77;22098;-54
2020/12/07 00:41:29;;;;;;;74.55;40.40;;;;;;;1.44;72.54;94581.01;1843986;77;21079;-54
2020/12/07 00:43:58;;;;;;;66.17;33.15;;;;;;;1.35;72.73;94580.07;1844054;77;21119;-55
2020/12/07 00:46:26;;;;;;;60.98;31.93;;;;;;;1.28;73.01;94579.34;1844002;77;22069;-54
2020/12/07 00:48:55;;;;;;;72.45;36.23;;;;;;;1.21;73.10;94580.14;1844042;77;21103;-53
2020/12/07 00:51:23;;;;;;;64.55;37.53;;;;;;;1.09;73.26;94583.25;1844010;77;22413;-56
2020/12/07 00:53:52;;;;;;;77.27;43.20;;;;;;;1.04;73.64;94585.59;1844088;77;21497;-55
2020/12/07 00:56:20;;;;;;;76.33;38.63;;;;;;;0.97;73.74;94585.61;1844016;77;21048;-53
2020/12/07 00:58:49;;;;;;;77.90;38.05;;;;;;;0.92;73.82;94580.00;1844008;77;21059;-54
2020/12/07 01:01:18;;;;;;;50.58;28.15;;;;;;;0.89;73.82;94582.14;1844006;77;21536;-55
2020/12/07 01:03:47;;;;;;;69.25;34.85;;;;;;;0.83;73.89;94583.70;1844140;77;22293;-55
2020/12/07 01:06:16;;;;;;;82.05;40.85;;;;;;;0.84;74.13;94582.55;1844007;77;21100;-55
2020/12/07 01:08:45;;;;;;;91.00;44.83;;;;;;;0.83;73.99;94576.94;1844007;77;21531;-55
2020/12/07 01:11:14;;;;;;;77.87;41.13;;;;;;;0.87;73.99;94576.91;1844013;77;21472;-54
2020/12/07 01:13:43;;;;;;;76.50;37.25;;;;;;;0.88;73.85;94583.30;1818382;77;21629;-55
2020/12/07 01:16:12;;;;;;;59.38;31.25;;;;;;;0.91;73.72;94580.38;1844042;77;21364;-55
2020/12/07 01:18:41;;;;;;;63.63;32.83;;;;;;;0.93;73.57;94575.38;1818716;77;21087;-54
2020/12/07 01:21:10;;;;;;;64.53;36.15;;;;;;;0.86;73.35;94563.97;1844130;77;21437;-54
2020/12/07 01:23:40;;;;;;;61.23;34.18;;;;;;;0.77;73.44;94568.24;1844039;77;21064;-54
2020/12/07 01:26:10;;;;;;;74.03;37.83;;;;;;;0.68;73.58;94563.23;1844092;76;21448;-55
2020/12/07 01:28:43;;;;;;;72.97;38.65;;;;;;;0.68;73.73;94576.76;1818443;77;21355;-54
2020/12/07 01:31:12;;;;;;;80.55;39.58;;;;;;;0.64;73.50;94568.44;1844074;77;21052;-54
2020/12/07 01:33:41;;;;;;;68.90;35.63;;;;;;;0.59;73.74;94568.25;1844022;77;21033;-54
2020/12/07 01:36:09;;;;;;;65.00;32.13;;;;;;;0.62;73.87;94568.06;1843834;77;21075;-54
2020/12/07 01:38:38;;;;;;;54.15;29.20;;;;;;;0.57;73.78;94562.45;1844023;77;21559;-55
2020/12/07 01:41:07;;;;;;;51.30;28.52;;;;;;;0.45;73.71;94561.48;1843944;77;21378;-54
2020/12/07 01:43:36;;;;;;;55.40;26.75;;;;;;;0.33;73.79;94552.42;1843946;77;21119;-54
2020/12/07 01:46:07;;;;;;;55.25;30.77;;;;;;;0.26;74.15;94560.52;1843980;77;21127;-54
2020/12/07 01:48:36;;;;;;;78.52;42.05;;;;;;;0.23;74.75;94566.70;1844002;77;21873;-54
2020/12/07 01:51:06;;;;;;;84.45;43.80;;;;;;;0.29;74.89;94558.42;1843843;77;21147;-56
2020/12/07 01:53:35;;;;;;;63.17;33.30;;;;;;;0.36;74.97;94554.91;1844009;77;21224;-54
2020/12/07 01:56:03;;;;;;;34.92;21.48;;;;;;;0.43;74.82;94547.57;1843965;77;21465;-54
2020/12/07 01:58:33;;;;;;;45.50;26.20;;;;;;;0.48;74.86;94559.37;1844113;77;21449;-54
2020/12/07 02:01:03;;;;;;;62.30;31.93;;;;;;;0.59;74.83;94557.42;1844006;77;21032;-54
2020/12/07 02:03:31;;;;;;;62.65;31.80;;;;;;;0.62;74.47;94556.64;1844041;77;21047;-54
2020/12/07 02:06:00;;;;;;;50.50;27.82;;;;;;;0.61;74.09;94552.39;1843978;77;22290;-56
2020/12/07 02:08:30;;;;;;;59.15;31.48;;;;;;;0.55;73.89;94559.36;1843978;77;21068;-54
2020/12/07 02:11:01;;;;;;;66.65;34.10;;;;;;;0.45;73.87;94552.61;1843132;77;21481;-54
2020/12/07 02:13:30;;;;;;;72.12;35.33;;;;;;;0.43;73.99;94562.45;1819058;77;21067;-54
2020/12/07 02:15:59;;;;;;;55.92;28.73;;;;;;;0.41;74.03;94559.36;1844017;77;21040;-54
2020/12/07 02:18:30;;;;;;;47.45;26.42;;;;;;;0.43;73.75;94553.58;1843312;77;21372;-53
2020/12/07 02:21:00;;;;;;;53.17;28.57;;;;;;;0.40;74.21;94559.17;1843942;77;21052;-54
2020/12/07 02:23:54;;;;;;;67.10;32.65;;;;;;;0.51;74.10;94554.55;1890016;75;22686;-54
2020/12/07 02:26:25;;;;;;;60.83;31.42;;;;;;;0.47;73.94;94560.54;1870242;76;21004;-55
2020/12/07 02:28:55;;;;;;;66.05;30.80;;;;;;;0.49;73.90;94562.28;1807104;79;21489;-55
2020/12/07 02:31:25;;;;;;;65.55;35.23;;;;;;;0.48;73.69;94558.02;1821785;78;21099;-55
2020/12/07 02:33:54;;;;;;;76.97;39.80;;;;;;;0.46;73.72;94561.70;1822979;78;21056;-55
2020/12/07 02:36:22;;;;;;;56.42;28.83;;;;;;;0.44;73.46;94558.59;1807142;79;21528;-55
2020/12/07 02:38:54;;;;;;;52.38;27.98;;;;;;;0.39;73.18;94557.63;1819011;78;21083;-55
2020/12/07 02:41:24;;;;;;;41.63;24.35;;;;;;;0.32;73.08;94554.94;1806659;79;21980;-55
2020/12/07 02:43:53;;;;;;;50.58;26.27;;;;;;;0.26;73.25;94555.11;1822826;78;20941;-56
2020/12/07 02:46:22;;;;;;;65.10;31.60;;;;;;;0.29;73.42;94550.87;1807121;79;21068;-55
2020/12/07 02:48:51;;;;;;;83.65;44.08;;;;;;;0.33;73.30;94553.78;1822855;78;21500;-55
2020/12/07 02:51:19;;;;;;;82.12;40.12;;;;;;;0.30;73.10;94555.91;1807196;79;21092;-56
2020/12/07 02:53:47;;;;;;;58.45;34.75;;;;;;;0.29;73.13;94550.30;1822922;78;22266;-55
2020/12/07 02:56:17;;;;;;;53.10;27.98;;;;;;;0.29;72.82;94555.72;1822775;78;21147;-58
2020/12/07 02:58:47;;;;;;;48.75;26.62;;;;;;;0.23;73.07;94557.23;1807131;79;21127;-56
2020/12/07 03:01:16;;;;;;;47.20;25.75;;;;;;;0.25;73.27;94553.56;1822948;78;21572;-56
2020/12/07 03:03:44;;;;;;;48.80;25.85;;;;;;;0.22;73.17;94552.98;1807053;79;21080;-56
2020/12/07 03:06:13;;;;;;;65.05;32.38;;;;;;;0.22;73.55;94552.98;1822849;78;21386;-57
2020/12/07 03:08:43;;;;;;;70.00;34.33;;;;;;;0.23;73.27;94545.06;1807013;79;21079;-57
2020/12/07 03:11:13;;;;;;;65.60;33.78;;;;;;;0.18;73.31;94539.27;1822851;78;21056;-55
2020/12/07 03:13:42;;;;;;;59.70;30.82;;;;;;;0.17;73.35;94550.67;1807081;79;21059;-56
2020/12/07 03:16:11;;;;;;;67.12;32.98;;;;;;;0.18;73.36;94537.34;1822851;78;21040;-56
2020/12/07 03:18:49;;;;;;;45.08;25.55;;;;;;;0.22;73.27;94540.81;1807052;79;21338;-55
2020/12/07 03:21:19;;;;;;;58.75;32.83;;;;;;;0.26;73.20;94553.75;1822886;78;21079;-55
2020/12/07 03:23:49;;;;;;;64.42;35.65;;;;;;;0.28;73.21;94543.35;1809028;79;21555;-55
2020/12/07 03:26:19;;;;;;;63.28;34.67;;;;;;;0.32;73.18;94539.27;1822486;78;21571;-55
2020/12/07 03:28:48;;;;;;;49.03;29.18;;;;;;;0.41;73.22;94545.84;1810219;79;21116;-56
2020/12/07 03:31:17;;;;;;;54.10;29.05;;;;;;;0.53;72.94;94548.16;1822774;78;21196;-56
2020/12/07 03:33:47;;;;;;;53.65;28.70;;;;;;;0.51;72.58;94541.02;1809937;79;21595;-56
2020/12/07 03:36:18;;;;;;;50.85;29.82;;;;;;;0.52;72.50;94540.41;1822240;78;21107;-56
2020/12/07 03:38:48;;;;;;;44.50;25.32;;;;;;;0.45;72.23;94534.42;1809592;79;21147;-55
2020/12/07 03:41:17;;;;;;;37.33;23.07;;;;;;;0.37;72.28;94532.90;1822243;78;21099;-55
2020/12/07 03:43:47;;;;;;;37.53;23.22;;;;;;;0.29;72.30;94530.58;1809149;79;21587;-56
2020/12/07 03:46:16;;;;;;;37.05;24.20;;;;;;;0.25;72.40;94544.09;1822278;78;21576;-55
2020/12/07 03:48:45;;;;;;;41.37;25.15;;;;;;;0.22;72.51;94545.47;1782681;79;21056;-55
2020/12/07 03:51:15;;;;;;;37.05;22.73;;;;;;;0.15;72.60;94539.48;1822217;78;21068;-56
2020/12/07 03:53:44;;;;;;;48.00;27.22;;;;;;;0.13;72.61;94528.27;1809755;79;21517;-55
2020/12/07 03:56:13;;;;;;;41.28;26.27;;;;;;;0.06;72.64;94532.31;1822195;78;21476;-57
2020/12/07 03:58:42;;;;;;;47.67;27.13;;;;;;;0.03;72.49;94538.49;1809597;79;21102;-54
2020/12/07 04:01:13;;;;;;;52.85;30.37;;;;;;;-0.06;72.41;94530.57;1822236;78;21052;-56
2020/12/07 04:03:46;;;;;;;54.13;32.60;;;;;;;-0.13;72.54;94530.58;1809598;79;21068;-56
2020/12/07 04:06:23;;;;;;;51.65;31.87;;;;;;;-0.19;72.75;94527.28;1793397;78;21055;-56
2020/12/07 04:08:45;;;;;;;53.25;30.35;;;;;;;-0.20;72.81;94535.19;1821080;78;21389;-56
2020/12/07 04:11:14;;;;;;;53.55;29.45;;;;;;;-0.21;72.54;94535.00;1809552;79;21540;-59
2020/12/07 04:13:42;;;;;;;65.50;35.52;;;;;;;-0.26;72.59;94532.69;1822295;78;21064;-56
2020/12/07 04:16:11;;;;;;;73.22;39.58;;;;;;;-0.26;72.48;94534.03;1809665;79;21481;-55
2020/12/07 04:18:40;;;;;;;75.00;43.48;;;;;;;-0.32;72.26;94532.84;1822208;78;21111;-55
2020/12/07 04:21:08;;;;;;;82.80;46.08;;;;;;;-0.39;72.18;94534.95;1822278;78;22247;-56
2020/12/07 04:23:36;;;;;;;77.12;43.83;;;;;;;-0.41;72.13;94539.20;1809282;79;21079;-55
2020/12/07 04:26:04;;;;;;;63.33;38.92;;;;;;;-0.45;72.14;94541.13;1822234;78;21067;-55
2020/12/07 04:28:34;;;;;;;76.60;42.50;;;;;;;-0.50;72.33;94532.81;1809567;79;21091;-56
2020/12/07 04:31:03;;;;;;;66.47;39.13;;;;;;;-0.52;72.78;94532.99;1822319;78;21476;-55
2020/12/07 04:33:31;;;;;;;67.27;36.35;;;;;;;-0.45;72.62;94534.38;1822183;78;21256;-55
2020/12/07 04:36:00;;;;;;;59.50;35.43;;;;;;;-0.43;72.50;94530.72;1822106;78;21543;-57
2020/12/07 04:38:28;;;;;;;72.40;41.30;;;;;;;-0.41;72.38;94536.50;1822161;78;21075;-55
2020/12/07 04:40:58;;;;;;;79.45;44.77;;;;;;;-0.38;72.71;94524.93;1809540;79;21108;-56
2020/12/07 04:43:28;;;;;;;91.57;53.20;;;;;;;-0.33;72.17;94531.30;1809032;79;21167;-56
2020/12/07 04:45:56;;;;;;;97.00;50.80;;;;;;;-0.47;71.82;94536.10;1822130;78;21362;-56
2020/12/07 04:48:26;;;;;;;113.45;60.73;;;;;;;-0.67;71.61;94530.84;1792619;78;21107;-56
2020/12/07 04:50:55;;;;;;;115.08;61.85;;;;;;;-0.89;71.83;94525.73;1822259;78;21612;-56
2020/12/07 04:53:25;;;;;;;109.87;57.43;;;;;;;-1.00;72.31;94537.08;1809564;79;21065;-55
2020/12/07 04:55:58;;;;;;;79.75;44.48;;;;;;;-0.97;72.65;94532.27;1822183;78;21044;-55
2020/12/07 04:58:26;;;;;;;;;;;;;;;-0.92;72.59;94519.75;1812261;79;21201;-55
2020/12/07 05:00:55;;;;;;;56.53;32.15;;;;;;;-0.88;72.71;94517.83;1809465;79;20231;-56
2020/12/07 05:03:24;;;;;;;62.90;35.13;;;;;;;-0.84;72.79;94518.61;1822125;78;21487;-56
2020/12/07 05:05:53;;;;;;;70.70;39.92;;;;;;;-0.78;72.79;94509.77;1822165;78;21048;-56
2020/12/07 05:08:23;;;;;;;69.03;37.35;;;;;;;-0.73;72.77;94517.52;1809570;79;21044;-57
2020/12/07 05:10:51;;;;;;;62.15;37.73;;;;;;;-0.69;72.84;94509.41;1792993;78;21452;-57
2020/12/07 05:13:27;;;;;;;72.22;38.28;;;;;;;-0.65;72.47;94512.88;1809472;79;21618;-56
2020/12/07 05:15:50;;;;;;;76.12;40.65;;;;;;;-0.66;72.25;94516.73;1821013;78;21080;-56
2020/12/07 05:18:18;;;;;;;69.82;42.48;;;;;;;-0.67;72.10;94514.63;1822280;78;21559;-56
2020/12/07 05:20:48;;;;;;;69.00;40.80;;;;;;;-0.72;72.27;94515.57;1822157;78;21120;-56
2020/12/07 05:23:17;;;;;;;66.77;38.53;;;;;;;-0.72;71.96;94513.66;1809324;79;21340;-57
2020/12/07 05:25:45;;;;;;;52.70;31.05;;;;;;;-0.81;71.97;94504.38;1822038;78;21210;-56
2020/12/07 05:28:23;;;;;;;60.28;35.80;;;;;;;-0.87;71.99;94495.86;1822096;78;21187;-56
2020/12/07 05:30:50;;;;;;;69.32;38.73;;;;;;;-0.92;72.15;94497.56;1821665;78;21150;-57
2020/12/07 05:33:19;;;;;;;73.17;42.30;;;;;;;-0.96;72.18;94500.83;1822257;78;21563;-58
2020/12/07 05:38:35;;;;;;;59.83;35.63;;;;;;;-0.97;72.63;94503.92;1881447;74;22711;-56
2020/12/07 05:41:04;;;;;;;52.95;32.20;;;;;;;-0.98;72.54;94501.03;1850531;76;21063;-57
2020/12/07 05:43:32;;;;;;;57.53;33.65;;;;;;;-1.01;72.78;94501.77;1850470;77;21192;-57
2020/12/07 05:46:01;;;;;;;68.87;41.40;;;;;;;-1.02;72.70;94498.87;1850405;76;21577;-57
2020/12/07 05:48:34;;;;;;;164.40;79.30;;;;;;;-1.06;72.94;94503.48;1850482;77;20984;-56
2020/12/07 05:51:07;;;;;;;174.23;79.17;;;;;;;-1.07;72.90;94493.28;1850505;77;21480;-56
2020/12/07 05:53:38;;;;;;;220.33;102.72;;;;;;;-1.05;73.02;94502.33;1850794;77;21471;-57
2020/12/07 05:56:10;;;;;;;139.40;72.92;;;;;;;-1.03;72.74;94503.51;1850581;77;22128;-57
2020/12/07 05:58:57;;;;;;;153.23;79.00;;;;;;;-1.00;72.44;94512.78;1850519;76;21567;-57
2020/12/07 06:01:27;;;;;;;192.95;92.45;;;;;;;-1.01;72.35;94509.86;1846798;77;20920;-56
2020/12/07 06:03:56;;;;;;;138.25;72.35;;;;;;;-1.00;72.29;94512.78;1850439;77;21081;-57
2020/12/07 06:06:31;;;;;;;214.08;106.97;;;;;;;-0.99;72.16;94514.33;1850424;77;21047;-57
2020/12/07 06:09:06;;;;;;;281.98;132.15;;;;;;;-0.95;72.33;94522.61;1850415;77;22905;-57
2020/12/07 06:11:46;;;;;;;157.80;86.85;;;;;;;-0.88;72.17;94513.78;1850307;77;21054;-58
2020/12/07 06:14:15;;;;;;;140.40;77.60;;;;;;;-0.86;71.55;94518.22;1818059;77;21054;-57
2020/12/07 06:16:43;;;;;;;157.18;82.88;;;;;;;-0.89;71.35;94524.38;1850378;76;21054;-57
2020/12/07 06:19:19;;;;;;;175.72;90.38;;;;;;;-1.00;71.04;94518.19;1818312;77;21531;-61
2020/12/07 06:22:00;;;;;;;130.63;71.62;;;;;;;-1.13;71.12;94520.41;1818554;77;21545;-58
2020/12/07 06:24:42;;;;;;;137.68;77.27;;;;;;;-1.21;71.70;94514.80;1850407;76;21137;-57
2020/12/07 06:27:13;;;;;;;113.57;65.25;;;;;;;-1.19;71.72;94522.50;1825969;77;21118;-57
2020/12/07 06:30:03;;;;;;;115.10;66.70;;;;;;;-1.15;71.95;94520.61;1817033;79;21106;-57
2020/12/07 06:32:51;;;;;;;124.72;75.67;;;;;;;-1.04;72.08;94524.12;1817178;79;21058;-58
2020/12/07 06:35:20;;;;;;;132.55;70.70;;;;;;;-0.93;71.78;94522.25;1817086;77;21406;-57
2020/12/07 06:37:51;;;;;;;151.57;81.95;;;;;;;-0.95;71.48;94523.20;1811782;78;21201;-58
2020/12/07 06:40:20;;;;;;;211.92;105.25;;;;;;;-1.04;71.59;94525.47;1817065;79;21137;-58
2020/12/07 06:42:49;;;;;;;175.82;91.92;;;;;;;-1.03;71.99;94521.05;1817046;78;21118;-58
2020/12/07 06:45:32;;;;;;;185.65;97.40;;;;;;;-0.96;71.86;94527.06;1817058;77;21184;-58
2020/12/07 06:48:10;;;;;;;191.05;100.45;;;;;;;-1.05;71.34;94517.96;1816803;78;21189;-59
2020/12/07 06:50:39;;;;;;;184.32;101.15;;;;;;;-1.11;71.44;94522.75;1816516;78;21596;-57
2020/12/07 06:55:59;;;;;;;210.93;111.15;;;;;;;-0.97;71.85;94524.17;1816422;79;21141;-60
2020/12/07 06:58:36;;;;;;;192.10;105.03;;;;;;;-0.92;71.15;94517.05;1816444;77;21172;-59
2020/12/07 07:01:12;;;;;;;179.70;100.47;;;;;;;-0.98;71.05;94527.43;1786382;79;22204;-60
2020/12/07 07:03:55;;;;;;;165.18;91.65;;;;;;;-1.00;71.32;94528.39;1816172;79;21117;-61
2020/12/07 07:06:24;;;;;;;184.30;103.65;;;;;;;-0.93;71.62;94523.59;1785708;79;21212;-56
2020/12/07 07:08:54;;;;;;;221.57;115.30;;;;;;;-0.74;71.81;94515.19;1816248;77;21073;-58
2020/12/07 07:11:22;;;;;;;249.95;127.70;;;;;;;-0.59;71.29;94515.42;1811336;78;21133;-57
2020/12/07 07:13:53;;;;;;;285.43;149.72;;;;;;;-0.64;70.90;94518.48;1816220;79;21414;-60
2020/12/07 07:16:22;;;;;;;296.35;154.32;;;;;;;-0.61;71.37;94506.94;1816330;77;21070;-62
2020/12/07 07:18:52;;;;;;;268.37;145.38;;;;;;;-0.45;71.30;94509.47;1815842;79;21054;-59
2020/12/07 07:21:20;;;;;;;262.72;126.85;;;;;;;-0.30;71.57;94510.27;1760936;79;21149;-62
2020/12/07 07:23:50;;;;;;;244.13;127.60;;;;;;;-0.10;71.14;94509.52;1816174;79;21570;-60
2020/12/07 07:26:25;;;;;;;227.10;122.82;;;;;;;-0.14;70.43;94509.32;1794708;77;21176;-60
2020/12/07 07:28:53;;;;;;;232.87;121.77;;;;;;;-0.25;70.79;94503.15;1812580;79;21571;-60
2020/12/07 07:31:25;;;;;;;202.53;114.57;;;;;;;-0.19;71.29;94501.00;1803174;79;21062;-57
2020/12/07 07:33:55;;;;;;;153.05;85.05;;;;;;;0.02;71.61;94504.50;1773689;79;21054;-58
2020/12/07 07:36:24;;;;;;;217.95;121.37;;;;;;;0.24;71.46;94501.98;1815760;77;21051;-57
2020/12/07 07:39:00;;;;;;;186.55;104.38;;;;;;;0.38;70.87;94502.58;1814759;78;21367;-58
2020/12/07 07:41:29;;;;;;;131.47;71.80;;;;;;;0.47;70.90;94499.66;1815664;77;21106;-59
2020/12/07 07:43:58;;;;;;;78.07;44.85;;;;;;;0.68;70.75;94495.56;1815475;79;21145;-64
2020/12/07 07:46:29;;;;;;;76.02;42.95;;;;;;;0.87;70.62;94495.69;1812837;78;21059;-58
2020/12/07 07:49:19;;;;;;;66.33;39.47;;;;;;;1.06;70.49;94489.25;1814371;78;21145;-59
2020/12/07 08:16:32;;;;;;;31.42;20.55;;;;;;;2.14;67.75;94495.98;1859302;77;21461;-62
2020/12/07 08:19:01;;;;;;;27.75;18.35;;;;;;;2.24;67.71;94491.05;1859358;77;22178;-58
2020/12/07 08:21:32;;;;;;;19.85;14.20;;;;;;;2.31;67.18;94495.07;1859404;77;21160;-62
2020/12/07 08:24:07;;;;;;;66.42;33.55;;;;;;;2.36;66.97;94491.31;1859652;77;21124;-63
2020/12/07 08:26:43;;;;;;;99.28;47.55;;;;;;;2.40;65.73;94492.08;1869808;76;21591;-56
2020/12/07 08:29:12;;;;;;;28.42;18.45;;;;;;;2.51;65.86;94496.06;1805455;78;21167;-66
2020/12/07 08:31:45;;;;;;;28.12;18.07;;;;;;;2.64;65.90;94495.15;1798438;79;21432;-60
2020/12/07 08:34:14;;;;;;;34.53;21.00;;;;;;;2.77;65.82;94487.26;1818694;78;21158;-62
2020/12/07 08:36:45;;;;;;;59.30;31.50;;;;;;;2.80;65.39;94483.16;1794464;78;21222;-64
2020/12/07 08:39:13;;;;;;;44.53;25.25;;;;;;;2.93;64.40;94484.19;1809372;78;21065;-61
2020/12/07 08:41:44;;;;;;;16.93;12.37;;;;;;;3.11;64.26;94482.05;1783589;80;21136;-59
2020/12/07 08:44:13;;;;;;;17.60;12.23;;;;;;;3.26;63.61;94483.39;1781835;79;21416;-59
2020/12/07 08:46:45;;;;;;;;;;;;;;;3.46;62.86;94486.27;1799236;78;21161;-61
2020/12/07 08:49:14;;;;;;;77.03;43.50;;;;;;;3.58;62.28;94482.41;1821791;78;20291;-61
2020/12/07 08:51:42;;;;;;;44.42;26.27;;;;;;;3.83;62.03;94477.42;1805710;78;21162;-60
2020/12/07 08:54:11;;;;;;;33.55;20.52;;;;;;;4.23;61.45;94473.09;1807106;78;21147;-63
2020/12/07 08:56:40;;;;;;;34.60;20.27;;;;;;;4.74;60.62;94472.62;1783930;79;22155;-59
2020/12/07 08:59:09;;;;;;;25.97;16.42;;;;;;;5.19;59.30;94465.53;1816277;78;21219;-59
2020/12/07 09:01:38;;;;;;;18.25;13.38;;;;;;;5.34;57.69;94470.88;1774254;80;21186;-59
2020/12/07 09:04:10;;;;;;;16.40;11.73;;;;;;;5.29;57.61;94471.38;1794883;80;21182;-61
2020/12/07 09:06:40;;;;;;;15.48;12.88;;;;;;;5.24;57.71;94459.00;1790648;79;21158;-57
2020/12/07 09:09:08;;;;;;;13.55;12.10;;;;;;;5.43;57.43;94460.95;1753572;80;21314;-60
2020/12/07 09:11:38;;;;;;;11.20;10.05;;;;;;;5.78;56.49;94453.98;1788294;78;21694;-59
2020/12/07 09:14:08;;;;;;;17.40;12.90;;;;;;;5.94;55.43;94448.59;1805558;79;21219;-58
2020/12/07 09:16:36;;;;;;;16.82;12.47;;;;;;;6.00;55.16;94437.33;1787725;79;21167;-60
2020/12/07 09:19:05;;;;;;;27.35;14.40;;;;;;;6.14;54.85;94438.38;1819774;78;21576;-64
2020/12/07 09:21:34;;;;;;;18.75;11.40;;;;;;;6.28;54.45;94431.97;1792861;79;21387;-59
2020/12/07 09:24:03;;;;;;;9.35;7.78;;;;;;;6.33;53.62;94439.64;1786599;79;21148;-61
2020/12/07 09:26:31;;;;;;;16.93;11.40;;;;;;;6.40;51.99;94441.44;1789215;80;21074;-61
2020/12/07 09:29:01;;;;;;;13.55;10.00;;;;;;;6.43;52.00;94444.09;1764923;79;21594;-60
2020/12/07 09:31:30;;;;;;;25.72;16.73;;;;;;;6.61;51.21;94439.54;1759359;80;21487;-57
2020/12/07 09:33:59;;;;;;;14.85;10.90;;;;;;;6.65;51.35;94434.75;1787361;80;21390;-64
2020/12/07 09:36:28;;;;;;;11.90;8.73;;;;;;;6.56;51.22;94431.87;1786880;80;21130;-60
2020/12/07 09:38:57;;;;;;;22.27;14.35;;;;;;;6.46;51.37;94426.84;1780402;80;21120;-58
2020/12/07 09:41:25;;;;;;;31.33;19.73;;;;;;;6.55;52.03;94427.60;1782695;80;21204;-57
2020/12/07 09:43:54;;;;;;;16.82;12.25;;;;;;;6.67;52.09;94420.08;1779986;80;21207;-57
2020/12/07 09:46:22;;;;;;;27.45;14.75;;;;;;;6.85;51.43;94421.75;1783606;80;21615;-56
2020/12/07 09:48:51;;;;;;;34.75;18.20;;;;;;;7.12;50.15;94416.87;1788846;79;22215;-58
2020/12/07 09:51:20;;;;;;;23.27;15.50;;;;;;;7.28;50.67;94418.18;1776991;79;21164;-59
2020/12/07 09:53:48;;;;;;;14.03;10.48;;;;;;;7.43;50.46;94413.84;1791904;78;21742;-59
2020/12/07 09:56:17;;;;;;;13.95;10.72;;;;;;;7.61;49.19;94415.47;1789441;80;21647;-59
2020/12/07 09:58:46;;;;;;;13.98;10.25;;;;;;;7.68;48.03;94415.25;1788759;80;21186;-69
2020/12/07 10:01:21;;;;;;;14.03;11.03;;;;;;;7.74;48.30;94405.28;1789010;80;21509;-59
2020/12/07 10:03:50;;;;;;;16.45;11.08;;;;;;;8.06;48.19;94405.69;1790782;78;21059;-59
2020/12/07 10:06:18;;;;;;;10.25;8.33;;;;;;;8.45;47.70;94397.77;1794236;80;21182;-60
2020/12/07 10:08:47;;;;;;;14.35;9.65;;;;;;;8.77;46.83;94394.73;1794233;80;21350;-63
2020/12/07 10:11:17;;;;;;;13.98;11.75;;;;;;;8.87;45.61;94394.98;1794548;79;21200;-62
2020/12/07 10:13:47;;;;;;;17.10;11.85;;;;;;;8.71;45.01;94395.14;1763878;80;21622;-60
2020/12/07 10:16:16;;;;;;;14.68;11.55;;;;;;;8.51;45.98;94389.76;1783366;80;21603;-60
2020/12/07 10:18:45;;;;;;;12.63;10.25;;;;;;;8.54;45.56;94388.87;1805752;79;21159;-62
2020/12/07 10:21:13;;;;;;;11.30;8.75;;;;;;;8.52;45.97;94384.44;1802575;78;21650;-58
2020/12/07 10:23:44;;;;;;;10.20;8.58;;;;;;;8.48;45.19;94377.72;1772868;79;21414;-61
2020/12/07 10:26:13;;;;;;;9.88;7.70;;;;;;;8.63;45.29;94376.63;1774031;79;21563;-57
2020/12/07 10:28:42;;;;;;;8.80;7.22;;;;;;;8.88;44.49;94378.06;1774055;80;21164;-63
2020/12/07 10:31:11;;;;;;;9.15;7.08;;;;;;;8.96;44.62;94372.52;1774235;80;21187;-59
2020/12/07 10:33:41;;;;;;;13.55;10.35;;;;;;;8.87;44.45;94368.93;1774096;80;21075;-60
2020/12/07 10:36:10;;;;;;;8.05;6.83;;;;;;;8.80;45.10;94363.67;1789395;80;21429;-56
2020/12/07 10:38:40;;;;;;;5.90;5.00;;;;;;;9.13;45.23;94360.73;1774276;80;21079;-61
2020/12/07 10:41:08;;;;;;;8.28;6.53;;;;;;;9.49;44.08;94360.97;1789190;80;21171;-61
2020/12/07 10:43:37;;;;;;;11.80;9.30;;;;;;;9.75;43.66;94355.45;1774220;80;21635;-57
2020/12/07 10:46:09;;;;;;;11.63;8.73;;;;;;;9.92;43.12;94348.50;1789481;80;21143;-59
2020/12/07 10:48:37;;;;;;;12.20;9.13;;;;;;;10.11;41.81;94348.75;1789558;80;21420;-58
2020/12/07 10:51:09;;;;;;;13.72;9.93;;;;;;;10.33;41.86;94345.33;1789295;80;21190;-59
2020/12/07 10:57:15;;;;;;;12.05;7.53;;;;;;;10.30;41.69;94347.59;1774000;80;21179;-60
2020/12/07 11:03:25;;;;;;;13.28;9.10;;;;;;;10.86;39.31;94330.27;1774074;80;21244;-58
2020/12/07 11:05:55;;;;;;;9.25;7.65;;;;;;;10.87;39.93;94322.16;1788852;80;21186;-57
2020/12/07 11:21:33;;;;;;;18.75;10.15;;;;;;;11.54;38.02;94310.27;1805588;77;22736;-60
2020/12/07 11:24:02;;;;;;;14.75;8.18;;;;;;;11.59;37.58;94310.30;1813511;79;21166;-59
2020/12/07 11:26:32;;;;;;;14.47;7.65;;;;;;;11.65;37.15;94310.59;1796991;78;21329;-61
2020/12/07 11:29:03;;;;;;;8.10;5.60;;;;;;;11.72;36.99;94309.49;1761743;81;21201;-62
2020/12/07 11:31:32;;;;;;;4.55;3.92;;;;;;;12.09;37.62;94313.00;1798077;79;21166;-58
2020/12/07 11:34:01;;;;;;;9.45;6.30;;;;;;;12.89;36.16;94309.59;1761817;81;21173;-60
2020/12/07 11:36:30;;;;;;;8.40;5.62;;;;;;;13.58;34.80;94313.43;1774818;80;21080;-64
2020/12/07 11:44:17;;;;;;;12.85;7.97;;;;;;;14.77;31.50;94314.39;1747728;80;21174;-56
2020/12/07 11:46:53;;;;;;;15.63;10.28;;;;;;;14.77;31.50;94306.70;1775607;80;21205;-57
2020/12/07 11:49:19;;;;;;;5.70;5.10;;;;;;;14.96;30.65;94312.88;1775312;80;21106;-58
2020/12/07 11:51:47;;;;;;;5.08;4.22;;;;;;;15.18;30.89;94302.68;1776049;80;22091;-59
2020/12/07 11:54:17;;;;;;;6.72;4.62;;;;;;;15.30;30.49;94300.18;1776214;80;21548;-58
2020/12/07 11:56:45;;;;;;;16.00;10.50;;;;;;;15.52;30.97;94301.17;1775957;80;21159;-62
2020/12/07 11:59:14;;;;;;;15.80;13.80;;;;;;;15.75;30.38;94302.90;1776157;80;21229;-59
2020/12/07 12:01:43;;;;;;;38.92;17.50;;;;;;;15.76;29.99;94290.55;1775984;80;21103;-59
2020/12/07 12:04:12;;;;;;;21.75;19.02;;;;;;;15.80;29.61;94285.56;1776074;80;22233;-60
2020/12/07 12:06:42;;;;;;;24.05;15.45;;;;;;;15.79;29.64;94285.44;1775822;80;21163;-61
2020/12/07 12:09:14;;;;;;;77.12;47.43;;;;;;;15.70;30.04;94288.36;1775727;80;21130;-61
2020/12/07 12:11:46;;;;;;;33.13;12.37;;;;;;;15.84;30.05;94292.26;1775998;80;21382;-59
2020/12/07 12:14:17;;;;;;;10.30;6.62;;;;;;;16.00;29.77;94288.86;1775976;80;21455;-59
2020/12/07 12:16:47;;;;;;;14.10;7.47;;;;;;;16.21;29.06;94288.89;1762890;81;21391;-60
2020/12/07 12:19:16;;;;;;;14.38;12.90;;;;;;;16.11;29.17;94291.09;1705188;81;21259;-59
2020/12/07 12:21:45;;;;;;;8.60;6.72;;;;;;;16.15;29.54;94290.27;1758160;81;21589;-59
2020/12/07 12:24:17;;;;;;;11.33;6.37;;;;;;;16.24;29.31;94280.34;1758456;81;21161;-58
2020/12/07 12:26:47;;;;;;;6.90;5.97;;;;;;;16.27;29.19;94275.19;1758141;81;21117;-59
2020/12/07 12:29:16;;;;;;;13.30;8.75;;;;;;;16.19;29.05;94285.85;1732913;81;21165;-57
2020/12/07 12:31:44;;;;;;;9.70;7.30;;;;;;;16.25;29.08;94283.25;1758053;81;21149;-59